Time;durP1;ratioP1;P1;durP2;ratioP2;P2;SDS_P1;SDS_P2;PMS_P1;PMS_P2;Temp;Humidity;BMP_temperature;BMP_pressure;BME280_temperature;BME280_humidity;BME280_pressure;Samples;Min_cycle;Max_cycle;Signal;HPM_P1;HPM_P2
2023/03/19 00:02:25;;;;;;;653.13;126.23;;;10.00;99.90;;;;;;5088752;28;20200;-50
2023/03/19 00:04:53;;;;;;;1459.97;337.13;;;10.00;99.90;;;;;;5088208;28;20775;-51
2023/03/19 00:07:21;;;;;;;34.50;21.17;;;10.00;99.90;;;;;;5088156;28;20292;-51
2023/03/19 00:09:49;;;;;;;630.90;140.13;;;10.10;99.90;;;;;;5088657;28;20228;-51
2023/03/19 00:12:17;;;;;;;593.23;169.47;;;10.10;99.90;;;;;;5088156;28;20319;-51
2023/03/19 00:14:45;;;;;;;39.47;20.67;;;10.10;99.90;;;;;;5088267;28;20319;-51
2023/03/19 00:17:13;;;;;;;324.83;71.27;;;10.00;99.90;;;;;;5088191;28;20288;-52
2023/03/19 00:19:42;;;;;;;914.23;233.93;;;10.10;99.90;;;;;;5088274;28;20209;-51
2023/03/19 00:22:10;;;;;;;154.70;36.27;;;10.00;99.90;;;;;;5090611;28;20227;-51
2023/03/19 00:24:38;;;;;;;213.47;79.90;;;10.00;99.90;;;;;;5092000;28;20252;-51
2023/03/19 00:27:06;;;;;;;590.60;92.40;;;10.00;99.90;;;;;;5092052;28;20653;-51
2023/03/19 00:29:35;;;;;;;50.03;19.47;;;10.10;99.90;;;;;;5091910;28;20298;-51
2023/03/19 00:32:03;;;;;;;342.10;73.47;;;10.10;99.90;;;;;;5091837;28;20270;-51
2023/03/19 00:34:31;;;;;;;49.53;24.03;;;10.10;99.90;;;;;;5092030;28;20861;-50
2023/03/19 00:37:00;;;;;;;372.40;63.47;;;10.10;99.90;;;;;;5092029;28;20291;-51
2023/03/19 00:39:28;;;;;;;380.77;87.93;;;10.10;99.90;;;;;;5092239;28;20200;-51
2023/03/19 00:41:56;;;;;;;376.00;97.30;;;10.10;99.90;;;;;;5092042;28;20288;-51
2023/03/19 00:44:24;;;;;;;779.17;185.13;;;10.10;99.90;;;;;;5089534;28;20235;-51
2023/03/19 00:46:52;;;;;;;25.73;13.57;;;10.10;99.90;;;;;;5089884;28;20215;-51
2023/03/19 00:49:21;;;;;;;104.73;37.70;;;10.10;99.90;;;;;;5083240;28;20291;-52
2023/03/19 00:51:49;;;;;;;274.50;62.43;;;10.00;99.90;;;;;;5091480;28;20307;-50
2023/03/19 00:54:18;;;;;;;117.73;38.07;;;10.10;99.90;;;;;;5091589;28;20236;-52
2023/03/19 00:56:46;;;;;;;121.60;28.00;;;10.00;99.90;;;;;;5091558;28;20238;-51
2023/03/19 00:59:14;;;;;;;249.67;59.17;;;10.00;99.90;;;;;;5091342;28;20205;-51
2023/03/19 01:01:42;;;;;;;287.07;80.73;;;10.00;99.90;;;;;;5091643;28;20305;-51
2023/03/19 01:04:11;;;;;;;527.30;114.97;;;10.00;99.90;;;;;;5084805;28;20744;-51
2023/03/19 01:06:39;;;;;;;264.90;75.03;;;10.00;99.90;;;;;;5077264;28;20204;-50
2023/03/19 01:09:07;;;;;;;148.90;31.30;;;10.00;99.90;;;;;;5091328;28;20235;-52
2023/03/19 01:11:37;;;;;;;774.73;161.67;;;10.00;99.90;;;;;;5090681;28;20316;-51
2023/03/19 01:14:05;;;;;;;30.80;16.97;;;10.00;99.90;;;;;;5091009;28;20794;-51
2023/03/19 01:16:34;;;;;;;158.73;47.10;;;10.00;99.90;;;;;;5090975;28;20218;-51
2023/03/19 01:19:03;;;;;;;532.67;89.50;;;10.00;99.90;;;;;;5090595;28;20814;-52
2023/03/19 01:21:31;;;;;;;118.87;38.50;;;10.00;99.90;;;;;;5091123;28;20303;-51
2023/03/19 01:23:59;;;;;;;301.40;42.37;;;10.00;99.90;;;;;;5090968;28;20569;-51
2023/03/19 01:26:27;;;;;;;491.63;107.37;;;10.10;99.90;;;;;;5090610;28;20673;-51
2023/03/19 01:28:58;;;;;;;544.70;90.03;;;10.10;99.90;;;;;;5090901;28;20204;-51
2023/03/19 01:31:26;;;;;;;206.47;50.27;;;10.00;99.90;;;;;;5090768;28;20227;-51
2023/03/19 01:33:54;;;;;;;166.60;65.83;;;10.00;99.90;;;;;;5090209;28;20270;-51
2023/03/19 01:36:22;;;;;;;307.33;56.10;;;10.00;99.90;;;;;;5090722;28;20231;-51
2023/03/19 01:38:50;;;;;;;59.83;27.13;;;10.00;99.90;;;;;;5090440;28;20647;-51
2023/03/19 01:41:18;;;;;;;462.13;82.10;;;10.10;99.90;;;;;;5090674;28;20678;-51
2023/03/19 01:43:46;;;;;;;1353.57;302.60;;;10.10;99.90;;;;;;5090707;28;20259;-51
2023/03/19 01:46:25;;;;;;;291.80;68.57;;;10.10;99.90;;;;;;5090316;28;20208;-51
2023/03/19 01:48:58;;;;;;;329.90;105.83;;;10.10;99.90;;;;;;5090191;28;20218;-51
2023/03/19 01:51:29;;;;;;;202.60;53.53;;;10.10;99.90;;;;;;5076636;28;20212;-52
2023/03/19 01:54:00;;;;;;;857.70;164.27;;;10.10;99.90;;;;;;5090501;28;20224;-51
2023/03/19 01:56:32;;;;;;;583.70;144.10;;;10.10;99.90;;;;;;5076341;28;20204;-52
2023/03/19 01:59:05;;;;;;;1680.70;269.40;;;10.10;99.90;;;;;;5090201;28;20623;-52
2023/03/19 02:01:37;;;;;;;185.77;44.40;;;10.10;99.90;;;;;;5075965;28;20626;-51
2023/03/19 02:04:06;;;;;;;1127.50;236.77;;;10.10;99.90;;;;;;5090291;28;20232;-51
2023/03/19 02:06:36;;;;;;;387.67;73.80;;;10.10;99.90;;;;;;5090068;28;20299;-52
2023/03/19 02:09:05;;;;;;;1146.50;217.07;;;10.10;99.90;;;;;;5090069;28;20307;-51
2023/03/19 02:11:33;;;;;;;550.50;103.33;;;10.10;99.90;;;;;;5089849;28;20213;-52
2023/03/19 02:14:01;;;;;;;191.60;46.20;;;10.10;99.90;;;;;;5090159;28;20320;-52
2023/03/19 02:16:30;;;;;;;672.83;156.50;;;10.10;99.90;;;;;;5089703;28;20242;-52
2023/03/19 02:19:00;;;;;;;555.67;139.43;;;10.10;99.90;;;;;;5089556;28;20215;-51
2023/03/19 02:21:28;;;;;;;561.07;124.60;;;10.10;99.90;;;;;;5089711;28;20213;-51
2023/03/19 02:24:03;;;;;;;481.47;114.17;;;10.10;99.90;;;;;;5089577;28;20716;-52
2023/03/19 02:26:32;;;;;;;55.43;26.20;;;10.10;99.90;;;;;;5089773;28;20741;-52
2023/03/19 02:29:00;;;;;;;498.27;85.13;;;10.00;99.90;;;;;;5089682;28;20307;-51
2023/03/19 02:31:28;;;;;;;492.33;91.00;;;10.10;99.90;;;;;;5089405;28;20236;-51
2023/03/19 02:33:59;;;;;;;164.97;56.40;;;10.10;99.90;;;;;;5089317;28;20849;-51
2023/03/19 02:36:32;;;;;;;449.63;79.73;;;10.10;99.90;;;;;;5089721;28;20298;-51
2023/03/19 02:39:04;;;;;;;757.23;138.20;;;10.10;99.90;;;;;;5089774;28;20290;-51
2023/03/19 02:41:36;;;;;;;165.97;38.60;;;10.10;99.90;;;;;;5089735;28;20319;-51
2023/03/19 02:44:04;;;;;;;1999.90;327.93;;;10.10;99.90;;;;;;5088070;28;20874;-51
2023/03/19 02:46:32;;;;;;;24.40;14.70;;;10.10;99.90;;;;;;5088788;28;20295;-51
2023/03/19 02:49:00;;;;;;;1999.90;510.23;;;10.10;99.90;;;;;;5089149;28;20232;-51
2023/03/19 02:51:28;;;;;;;1605.40;210.60;;;10.10;99.90;;;;;;5089497;28;20208;-51
2023/03/19 02:53:56;;;;;;;1102.80;115.37;;;10.10;99.90;;;;;;5088870;28;20704;-51
2023/03/19 02:56:25;;;;;;;160.83;36.63;;;10.10;99.90;;;;;;5089308;28;20261;-51
2023/03/19 02:58:54;;;;;;;875.13;185.30;;;10.10;99.90;;;;;;5088872;28;20284;-51
2023/03/19 03:01:23;;;;;;;779.40;110.70;;;10.10;99.90;;;;;;5088963;28;20567;-51
2023/03/19 03:03:51;;;;;;;575.37;105.47;;;10.10;99.90;;;;;;5088674;28;20303;-51
2023/03/19 03:06:19;;;;;;;370.83;82.93;;;10.10;99.90;;;;;;5088191;28;20291;-52
2023/03/19 03:08:47;;;;;;;695.77;123.83;;;10.00;99.90;;;;;;5088812;28;20291;-51
2023/03/19 03:11:15;;;;;;;878.90;114.00;;;10.00;99.90;;;;;;5089065;28;20291;-51
2023/03/19 03:13:43;;;;;;;675.43;123.13;;;10.10;99.90;;;;;;5088888;28;20644;-51
2023/03/19 03:16:14;;;;;;;1999.90;327.07;;;10.10;99.90;;;;;;5088956;28;20236;-52
2023/03/19 03:18:42;;;;;;;795.50;116.77;;;10.10;99.90;;;;;;5088421;28;20588;-51
2023/03/19 03:21:10;;;;;;;57.37;28.83;;;10.10;99.90;;;;;;5088502;28;20212;-51
2023/03/19 03:23:38;;;;;;;315.93;55.90;;;10.10;99.90;;;;;;5088485;28;20311;-51
2023/03/19 03:26:07;;;;;;;51.00;25.97;;;10.00;99.90;;;;;;5088503;28;20641;-51
2023/03/19 03:28:35;;;;;;;241.33;60.00;;;10.00;99.90;;;;;;5088234;28;20208;-51
2023/03/19 03:31:03;;;;;;;1677.47;194.47;;;10.10;99.90;;;;;;5088487;28;20208;-52
2023/03/19 03:33:32;;;;;;;987.00;118.80;;;10.10;99.90;;;;;;5087622;28;20307;-51
2023/03/19 03:36:00;;;;;;;220.37;50.63;;;10.10;99.90;;;;;;5088931;28;20303;-51
2023/03/19 03:38:28;;;;;;;208.43;44.20;;;10.10;99.90;;;;;;5088888;28;20209;-51
2023/03/19 03:40:56;;;;;;;195.43;38.57;;;10.00;99.90;;;;;;5088485;28;20299;-51
2023/03/19 03:43:25;;;;;;;366.23;68.80;;;10.00;99.90;;;;;;5088551;28;20228;-51
2023/03/19 03:45:53;;;;;;;649.27;128.90;;;10.00;99.90;;;;;;5088638;28;20212;-51
2023/03/19 03:48:22;;;;;;;455.60;69.23;;;10.10;99.90;;;;;;5088496;28;20204;-52
2023/03/19 03:50:51;;;;;;;784.67;138.57;;;10.10;99.90;;;;;;5088819;28;20287;-51
2023/03/19 03:53:19;;;;;;;116.07;25.83;;;10.10;99.90;;;;;;5088396;28;20250;-51
2023/03/19 03:55:47;;;;;;;894.43;127.77;;;10.10;99.90;;;;;;5090508;28;20298;-52
2023/03/19 03:58:15;;;;;;;105.53;32.37;;;10.10;99.90;;;;;;5092617;28;20208;-52
2023/03/19 04:00:43;;;;;;;746.03;140.30;;;10.10;99.90;;;;;;5092491;28;20752;-51
2023/03/19 04:03:12;;;;;;;356.23;48.00;;;10.10;99.90;;;;;;5092695;28;20232;-51
2023/03/19 04:05:40;;;;;;;1289.13;173.83;;;10.00;99.90;;;;;;5092326;28;20196;-51
2023/03/19 04:08:10;;;;;;;126.40;26.43;;;10.10;99.90;;;;;;5092621;28;20243;-51
2023/03/19 04:10:41;;;;;;;410.70;61.80;;;10.00;99.90;;;;;;5092389;28;20922;-50
2023/03/19 04:13:09;;;;;;;585.40;99.97;;;10.00;99.90;;;;;;5091884;28;20271;-52
2023/03/19 04:15:37;;;;;;;787.37;124.00;;;10.00;99.90;;;;;;5091737;28;20299;-51
2023/03/19 04:18:05;;;;;;;42.53;17.40;;;10.00;99.90;;;;;;5092190;28;20208;-51
2023/03/19 04:20:33;;;;;;;183.97;33.30;;;10.00;99.90;;;;;;5092300;28;20295;-51
2023/03/19 04:23:02;;;;;;;647.60;109.27;;;10.00;99.90;;;;;;5092191;28;20619;-51
2023/03/19 04:25:31;;;;;;;96.23;33.20;;;10.00;99.90;;;;;;5092270;28;20212;-51
2023/03/19 04:27:59;;;;;;;176.87;43.30;;;10.00;99.90;;;;;;5092112;28;21112;-51
2023/03/19 04:30:27;;;;;;;331.77;41.13;;;10.00;99.90;;;;;;5092125;28;20299;-51
2023/03/19 04:32:55;;;;;;;378.33;77.83;;;10.00;99.90;;;;;;5091744;28;20237;-51
2023/03/19 04:35:24;;;;;;;152.63;31.07;;;10.00;99.90;;;;;;5091702;28;20737;-52
2023/03/19 04:37:52;;;;;;;272.20;60.27;;;10.00;99.90;;;;;;5091476;28;20695;-51
2023/03/19 04:40:20;;;;;;;83.97;24.10;;;10.10;99.90;;;;;;5092053;28;20216;-51
2023/03/19 04:42:49;;;;;;;131.10;43.07;;;10.00;99.90;;;;;;5091733;28;20220;-51
2023/03/19 04:45:18;;;;;;;98.47;38.27;;;10.10;99.90;;;;;;5090169;28;20232;-51
2023/03/19 04:47:46;;;;;;;1504.37;221.30;;;10.00;99.90;;;;;;5091581;28;20292;-52
2023/03/19 04:50:14;;;;;;;1276.23;221.13;;;10.00;99.90;;;;;;5095705;28;20212;-51
2023/03/19 04:52:42;;;;;;;207.13;42.93;;;10.00;99.90;;;;;;5094918;28;20236;-50
2023/03/19 04:55:10;;;;;;;696.03;105.20;;;10.00;99.90;;;;;;5092588;28;20730;-51
2023/03/19 04:57:38;;;;;;;696.70;119.67;;;10.00;99.90;;;;;;5109332;28;20291;-51
2023/03/19 05:00:09;;;;;;;211.13;39.10;;;10.00;99.90;;;;;;5110829;28;20212;-52
2023/03/19 05:02:38;;;;;;;221.57;51.63;;;10.00;99.90;;;;;;5108145;28;20294;-51
2023/03/19 05:05:06;;;;;;;122.57;26.30;;;10.00;99.90;;;;;;5108989;28;20255;-51
2023/03/19 05:07:35;;;;;;;653.10;121.00;;;10.00;99.90;;;;;;5105907;28;20230;-52
2023/03/19 05:10:03;;;;;;;459.63;86.47;;;10.00;99.90;;;;;;5095184;28;20294;-51
2023/03/19 05:12:31;;;;;;;224.67;60.73;;;10.00;99.90;;;;;;5104028;28;20264;-51
2023/03/19 05:14:59;;;;;;;361.07;63.90;;;9.90;99.90;;;;;;5108577;28;20326;-51
2023/03/19 05:17:28;;;;;;;84.33;34.20;;;9.90;99.90;;;;;;5107377;28;20299;-51
2023/03/19 05:19:57;;;;;;;449.73;91.20;;;9.90;99.90;;;;;;5102269;28;20207;-50
2023/03/19 05:22:25;;;;;;;594.40;134.10;;;9.80;99.90;;;;;;5108313;28;20207;-52
2023/03/19 05:24:53;;;;;;;370.77;49.13;;;9.70;99.90;;;;;;5106393;28;20220;-51
2023/03/19 05:27:21;;;;;;;39.67;21.47;;;9.70;99.90;;;;;;5102718;28;20223;-52
2023/03/19 05:29:49;;;;;;;293.27;40.67;;;9.70;99.90;;;;;;5104534;28;20283;-52
2023/03/19 05:32:17;;;;;;;117.70;25.17;;;9.70;99.90;;;;;;5090042;28;20323;-51
2023/03/19 05:34:47;;;;;;;356.83;65.17;;;9.70;99.90;;;;;;5090406;28;20255;-52
2023/03/19 05:37:15;;;;;;;34.60;19.43;;;9.60;99.90;;;;;;5090658;28;20218;-51
2023/03/19 05:39:44;;;;;;;300.77;59.83;;;9.60;99.90;;;;;;5087212;28;20621;-51
2023/03/19 05:42:13;;;;;;;791.97;152.70;;;9.50;99.90;;;;;;5090513;28;20211;-51
2023/03/19 05:44:41;;;;;;;88.80;16.97;;;9.50;99.90;;;;;;5090442;28;20351;-51
2023/03/19 05:47:11;;;;;;;130.43;21.10;;;9.60;99.90;;;;;;5090332;28;20212;-51
2023/03/19 05:49:38;;;;;;;69.47;23.77;;;9.50;99.90;;;;;;5090238;28;20696;-51
2023/03/19 05:52:08;;;;;;;211.90;48.63;;;9.50;99.90;;;;;;5089682;28;20232;-51
2023/03/19 05:54:36;;;;;;;88.83;31.47;;;9.50;99.90;;;;;;5089730;28;20220;-51
2023/03/19 05:57:04;;;;;;;53.63;26.20;;;9.40;99.90;;;;;;5109044;28;20302;-51
2023/03/19 05:59:33;;;;;;;407.30;80.10;;;9.40;99.90;;;;;;5109287;28;20213;-51
2023/03/19 06:02:00;;;;;;;704.50;170.00;;;9.50;99.90;;;;;;5095398;28;20207;-51
2023/03/19 06:04:28;;;;;;;44.97;14.80;;;9.50;99.90;;;;;;5097456;28;20226;-52
2023/03/19 06:06:56;;;;;;;416.80;86.03;;;9.50;99.90;;;;;;5107085;28;20569;-50
2023/03/19 06:09:26;;;;;;;100.80;32.87;;;9.50;99.90;;;;;;5093802;28;20652;-51
2023/03/19 06:11:54;;;;;;;544.23;107.63;;;9.50;99.90;;;;;;5099747;28;21106;-51
2023/03/19 06:14:22;;;;;;;375.73;81.27;;;9.50;99.90;;;;;;5096140;28;20259;-52
2023/03/19 06:16:50;;;;;;;46.57;17.23;;;9.50;99.90;;;;;;5090319;28;20446;-51
2023/03/19 06:19:18;;;;;;;675.63;96.07;;;9.60;99.90;;;;;;5098046;28;20804;-51
2023/03/19 06:21:46;;;;;;;73.30;25.60;;;9.60;99.90;;;;;;5097915;28;20638;-51
2023/03/19 06:24:14;;;;;;;547.93;79.87;;;9.60;99.90;;;;;;5101653;28;20302;-51
2023/03/19 06:26:43;;;;;;;198.20;55.10;;;9.70;99.90;;;;;;5103680;28;20290;-51
2023/03/19 06:29:11;;;;;;;998.40;177.57;;;9.80;99.90;;;;;;5105210;28;20223;-51
2023/03/19 06:31:40;;;;;;;74.47;26.80;;;9.80;99.90;;;;;;5104879;28;20261;-51
2023/03/19 06:34:08;;;;;;;1144.33;182.20;;;9.90;99.90;;;;;;5103588;28;20332;-52
2023/03/19 06:36:37;;;;;;;829.80;149.73;;;10.00;99.90;;;;;;5093328;28;20283;-51
2023/03/19 06:39:05;;;;;;;249.17;57.33;;;10.10;99.90;;;;;;5100270;28;20909;-52
2023/03/19 06:41:33;;;;;;;476.50;121.07;;;10.20;99.90;;;;;;5106629;28;20303;-52
2023/03/19 06:44:03;;;;;;;1250.30;190.83;;;10.20;99.90;;;;;;5102090;28;20249;-51
2023/03/19 06:46:31;;;;;;;1999.90;293.13;;;10.30;99.90;;;;;;5088568;28;20304;-51
2023/03/19 06:48:59;;;;;;;1151.27;156.37;;;10.30;99.90;;;;;;5088539;28;20567;-51
2023/03/19 06:51:27;;;;;;;1360.83;256.87;;;10.60;99.90;;;;;;5088117;28;20296;-52
2023/03/19 06:53:55;;;;;;;1999.90;367.90;;;10.60;99.90;;;;;;5088585;28;20724;-50
2023/03/19 06:56:23;;;;;;;1999.90;405.33;;;10.80;99.90;;;;;;5102411;28;20250;-52
2023/03/19 06:58:51;;;;;;;1211.53;200.50;;;11.00;99.90;;;;;;5109231;28;20214;-51
2023/03/19 07:01:21;;;;;;;1774.13;266.10;;;11.00;99.90;;;;;;5104239;28;20291;-52
2023/03/19 07:03:50;;;;;;;1999.90;360.03;;;11.00;99.90;;;;;;5105486;28;20251;-51
2023/03/19 07:06:18;;;;;;;1236.90;197.67;;;11.10;99.90;;;;;;5109574;28;20210;-51
2023/03/19 07:08:46;;;;;;;1999.90;459.40;;;11.10;99.90;;;;;;5109582;28;20242;-51
2023/03/19 07:11:15;;;;;;;1999.90;597.90;;;11.60;99.90;;;;;;5099762;28;20243;-52
2023/03/19 07:13:43;;;;;;;1999.90;541.43;;;11.80;99.90;;;;;;5106606;28;20256;-51
2023/03/19 07:16:11;;;;;;;1999.90;644.20;;;12.20;99.90;;;;;;5101073;28;20255;-51
2023/03/19 07:18:40;;;;;;;1999.90;619.87;;;12.40;99.90;;;;;;5089303;28;20253;-51
2023/03/19 07:21:08;;;;;;;1999.90;538.50;;;12.60;99.90;;;;;;5094624;28;20302;-51
2023/03/19 07:23:36;;;;;;;1999.90;755.67;;;12.90;99.90;;;;;;5085641;28;20855;-51
2023/03/19 07:26:05;;;;;;;1999.90;879.53;;;13.00;99.90;;;;;;5088574;28;20234;-51
2023/03/19 07:28:33;;;;;;;1999.90;937.13;;;13.10;99.90;;;;;;5088583;28;20243;-51
2023/03/19 07:31:01;;;;;;;1999.90;972.72;;;13.20;99.90;;;;;;5090669;28;20242;-52
2023/03/19 07:33:29;;;;;;;1999.90;765.70;;;13.20;99.90;;;;;;5083082;28;20226;-51
2023/03/19 07:35:58;;;;;;;1999.90;776.72;;;13.10;99.90;;;;;;5092615;28;20313;-51
2023/03/19 07:38:26;;;;;;;1999.90;802.17;;;12.90;99.90;;;;;;5090076;28;20212;-52
2023/03/19 07:40:54;;;;;;;1999.90;727.77;;;12.90;99.90;;;;;;5094028;28;20739;-52
2023/03/19 07:43:30;;;;;;;1999.90;707.77;;;13.00;99.90;;;;;;5092619;28;20259;-51
2023/03/19 07:45:58;;;;;;;1999.90;786.77;;;12.80;99.90;;;;;;5087689;28;20200;-51
2023/03/19 07:48:26;;;;;;;1999.90;613.90;;;12.70;99.90;;;;;;5092681;28;20231;-51
2023/03/19 07:50:54;;;;;;;1999.90;624.97;;;12.80;99.90;;;;;;5092612;28;20241;-51
2023/03/19 07:53:24;;;;;;;1999.90;665.73;;;12.80;99.90;;;;;;5092525;28;20200;-51
2023/03/19 07:55:52;;;;;;;1999.90;553.37;;;13.20;99.90;;;;;;5080549;28;20296;-52
2023/03/19 07:58:20;;;;;;;1999.90;760.08;;;13.20;99.90;;;;;;5092646;28;20627;-51
2023/03/19 08:00:47;;;;;;;1999.90;816.83;;;13.10;99.90;;;;;;5092328;28;20239;-51
2023/03/19 08:03:16;;;;;;;1999.90;760.60;;;13.10;99.90;;;;;;5092277;28;20291;-51
2023/03/19 08:05:44;;;;;;;1999.90;812.70;;;13.10;99.90;;;;;;5092383;28;20192;-52
2023/03/19 08:08:12;;;;;;;1999.90;728.60;;;13.10;99.90;;;;;;5097976;28;20827;-52
2023/03/19 08:10:41;;;;;;;1999.90;656.65;;;13.10;99.90;;;;;;5088264;28;20207;-51
2023/03/19 08:13:09;;;;;;;1999.90;668.85;;;13.20;99.90;;;;;;5106965;28;20243;-52
2023/03/19 08:15:37;;;;;;;1999.90;699.85;;;13.30;99.90;;;;;;5102617;28;20274;-51
2023/03/19 08:18:06;;;;;;;1999.90;741.35;;;13.40;99.90;;;;;;5091037;28;20299;-51
2023/03/19 08:20:34;;;;;;;1999.90;566.47;;;13.40;99.90;;;;;;5091671;28;20304;-52
2023/03/19 08:23:03;;;;;;;1999.90;665.23;;;13.50;99.90;;;;;;5091910;28;20208;-51
2023/03/19 08:25:32;;;;;;;1999.90;732.97;;;13.40;99.90;;;;;;5091085;28;20236;-52
2023/03/19 08:28:01;;;;;;;1999.90;594.83;;;13.30;99.90;;;;;;5085632;28;20295;-51
2023/03/19 08:30:30;;;;;;;1999.90;667.20;;;13.20;99.90;;;;;;5088093;28;20622;-52
2023/03/19 08:32:59;;;;;;;1999.90;537.00;;;13.30;99.90;;;;;;5084380;28;20801;-51
2023/03/19 08:35:28;;;;;;;1999.90;403.43;;;13.20;99.90;;;;;;5090284;28;20343;-51
2023/03/19 08:37:57;;;;;;;1999.90;763.55;;;13.20;99.90;;;;;;5067271;28;20319;-51
2023/03/19 08:40:25;;;;;;;1999.90;798.55;;;13.20;99.90;;;;;;5089433;28;20356;-51
2023/03/19 08:42:54;;;;;;;1999.90;679.60;;;13.20;99.90;;;;;;5088218;28;20205;-50
2023/03/19 08:45:24;;;;;;;1999.90;557.03;;;13.30;99.90;;;;;;5090600;28;20645;-52
2023/03/19 08:47:52;;;;;;;1999.90;676.65;;;13.40;99.90;;;;;;5090370;28;20210;-52
2023/03/19 08:50:20;;;;;;;1999.90;531.03;;;13.30;99.90;;;;;;5091012;28;20219;-51
2023/03/19 08:52:48;;;;;;;1999.90;670.67;;;13.50;99.90;;;;;;5090952;28;20287;-51
2023/03/19 08:55:17;;;;;;;1999.90;854.47;;;13.50;99.90;;;;;;5092051;28;20583;-51
2023/03/19 08:57:45;;;;;;;1999.90;744.70;;;13.60;99.90;;;;;;5095024;28;20211;-51
2023/03/19 09:00:14;;;;;;;1999.90;733.58;;;13.60;99.90;;;;;;5093804;28;20247;-51
2023/03/19 09:02:43;;;;;;;1999.90;716.75;;;13.70;99.90;;;;;;5093679;28;20273;-51
2023/03/19 09:05:11;;;;;;;1999.90;891.72;;;13.80;99.90;;;;;;5093370;28;20311;-51
2023/03/19 09:07:39;;;;;;;1999.90;881.10;;;13.70;99.90;;;;;;5095611;28;20204;-52
2023/03/19 09:10:08;;;;;;;1999.90;903.20;;;13.80;99.90;;;;;;5091761;28;20204;-51
2023/03/19 09:12:36;;;;;;;1999.90;844.63;;;13.80;99.90;;;;;;5089357;28;20784;-52
2023/03/19 09:15:05;;;;;;;1999.90;947.83;;;13.90;99.90;;;;;;5090535;28;20704;-51
2023/03/19 09:17:33;;;;;;;1999.90;978.22;;;13.90;99.90;;;;;;5094760;28;20311;-51
2023/03/19 09:20:04;;;;;;;1999.90;959.63;;;13.90;99.90;;;;;;5095704;28;20208;-52
2023/03/19 09:22:33;;;;;;;1999.90;882.78;;;13.90;99.90;;;;;;5091975;28;20243;-52
2023/03/19 09:25:00;;;;;;;1999.90;743.85;;;13.90;99.90;;;;;;5091671;28;20246;-51
2023/03/19 09:27:28;;;;;;;1999.90;893.85;;;13.80;99.90;;;;;;5089546;28;20290;-52
2023/03/19 09:29:57;;;;;;;1999.90;999.90;;;13.80;99.90;;;;;;5092956;28;20668;-51
2023/03/19 09:32:25;;;;;;;1999.90;780.30;;;13.90;99.90;;;;;;5095178;28;20236;-51
2023/03/19 09:34:53;;;;;;;1999.90;887.97;;;13.90;99.90;;;;;;5090062;28;20224;-51
2023/03/19 09:37:22;;;;;;;1999.90;788.80;;;14.00;99.90;;;;;;5089720;28;20605;-52
2023/03/19 09:39:50;;;;;;;1999.90;847.45;;;14.10;99.90;;;;;;5090584;28;20303;-50
2023/03/19 09:42:43;;;;;;;1999.90;911.20;;;14.10;99.90;;;;;;5090451;28;20656;-51
2023/03/19 09:45:14;;;;;;;1999.90;814.25;;;14.20;99.90;;;;;;5090008;28;20259;-50
2023/03/19 09:47:45;;;;;;;1999.90;709.50;;;14.20;99.90;;;;;;5089911;28;20640;-51
2023/03/19 09:50:15;;;;;;;1999.90;999.33;;;14.30;99.90;;;;;;5090147;28;20212;-51
2023/03/19 09:52:46;;;;;;;1999.90;975.80;;;14.20;99.90;;;;;;5089409;28;20243;-51
2023/03/19 09:55:28;;;;;;;1999.90;999.90;;;14.30;99.90;;;;;;5093827;28;20322;-50
2023/03/19 09:57:57;;;;;;;1999.90;946.60;;;14.30;99.90;;;;;;5110606;28;20326;-51
2023/03/19 10:00:28;;;;;;;1999.90;876.72;;;14.40;99.90;;;;;;5110337;28;20204;-50
2023/03/19 10:03:01;;;;;;;1999.90;765.78;;;14.50;99.90;;;;;;5099372;28;20206;-51
2023/03/19 10:05:42;;;;;;;1999.90;972.70;;;14.50;99.90;;;;;;5087592;28;20218;-50
2023/03/19 10:08:32;;;;;;;1999.90;999.90;;;14.60;99.90;;;;;;5089997;28;20653;-51
2023/03/19 10:11:17;;;;;;;1999.90;821.53;;;14.50;99.90;;;;;;5094052;28;20216;-51
2023/03/19 10:13:59;;;;;;;1999.90;906.55;;;14.50;99.90;;;;;;5105473;28;20940;-51
2023/03/19 10:16:30;;;;;;;1999.90;922.05;;;14.60;99.90;;;;;;5110217;28;20226;-50
2023/03/19 10:19:00;;;;;;;1999.90;999.90;;;14.70;99.90;;;;;;5095620;28;20215;-50
2023/03/19 10:21:34;;;;;;;1999.90;996.03;;;14.70;99.90;;;;;;5106753;28;20287;-52
2023/03/19 10:24:06;;;;;;;1999.90;889.72;;;14.60;99.90;;;;;;5104120;28;20223;-50
2023/03/19 10:26:35;;;;;;;1999.90;893.63;;;14.60;99.90;;;;;;5091388;28;20235;-51
2023/03/19 10:29:07;;;;;;;1999.90;887.10;;;14.70;99.90;;;;;;5095319;28;20241;-51
2023/03/19 10:31:43;;;;;;;1999.90;906.78;;;14.80;99.90;;;;;;5091061;28;20228;-51
2023/03/19 10:34:27;;;;;;;1999.90;870.63;;;15.00;99.90;;;;;;5091449;28;20337;-51
2023/03/19 10:37:00;;;;;;;1999.90;999.90;;;15.30;99.90;;;;;;5099960;28;20676;-51
2023/03/19 10:39:32;;;;;;;1999.90;741.28;;;15.50;99.90;;;;;;5109630;28;20286;-51
2023/03/19 10:42:18;;;;;;;1999.90;839.95;;;15.60;99.90;;;;;;5109882;28;20239;-50
2023/03/19 10:44:50;;;;;;;1999.90;986.47;;;15.70;99.90;;;;;;5109483;28;20330;-51
2023/03/19 10:47:21;;;;;;;1999.90;944.20;;;15.70;99.90;;;;;;5099867;28;20200;-50
2023/03/19 10:49:50;;;;;;;1999.90;899.50;;;15.80;99.90;;;;;;5096042;28;20257;-51
2023/03/19 10:52:22;;;;;;;1999.90;922.53;;;16.00;99.90;;;;;;5100649;28;20235;-51
2023/03/19 10:54:55;;;;;;;1999.90;946.65;;;15.90;99.90;;;;;;5095086;28;20311;-50
2023/03/19 10:57:26;;;;;;;1999.90;885.42;;;16.00;99.90;;;;;;5090975;28;20606;-50
2023/03/19 10:59:55;;;;;;;1999.90;886.60;;;16.30;99.90;;;;;;5098988;28;20223;-51
2023/03/19 11:02:29;;;;;;;1999.90;999.90;;;16.40;99.90;;;;;;5081351;28;20249;-50
2023/03/19 11:05:18;;;;;;;1999.90;999.90;;;16.40;99.90;;;;;;5085953;28;20938;-51
2023/03/19 11:07:50;;;;;;;1999.90;999.90;;;16.40;99.90;;;;;;5086350;28;20204;-51
2023/03/19 11:10:21;;;;;;;1999.90;999.90;;;16.40;99.90;;;;;;5092322;28;20212;-51
2023/03/19 11:12:56;;;;;;;1999.90;995.97;;;16.40;99.90;;;;;;5098373;28;20566;-51
2023/03/19 11:15:28;;;;;;;1999.90;999.90;;;16.40;99.90;;;;;;5103599;28;20948;-51
2023/03/19 11:17:58;;;;;;;1999.90;999.90;;;16.40;99.90;;;;;;5109060;28;20204;-51
2023/03/19 11:20:30;;;;;;;1999.90;999.53;;;16.10;99.90;;;;;;5088392;28;20209;-51
2023/03/19 11:23:02;;;;;;;1999.90;989.67;;;16.10;99.90;;;;;;5090028;28;20227;-51
2023/03/19 11:25:36;;;;;;;1999.90;757.65;;;16.10;99.90;;;;;;5093003;28;20287;-50
2023/03/19 11:28:08;;;;;;;1999.90;904.90;;;16.20;99.90;;;;;;5092491;28;20230;-50
2023/03/19 11:30:49;;;;;;;1999.90;897.25;;;16.20;99.90;;;;;;5087989;28;20204;-50
2023/03/19 11:33:47;;;;;;;1999.90;804.40;;;16.30;99.90;;;;;;5088058;28;20239;-53
2023/03/19 11:36:22;;;;;;;1999.90;999.90;;;16.50;99.90;;;;;;5086964;28;20204;-51
2023/03/19 11:39:00;;;;;;;1999.90;999.90;;;16.50;99.90;;;;;;5083475;28;20239;-51
2023/03/19 11:41:42;;;;;;;1999.90;906.65;;;16.60;99.90;;;;;;5082839;28;20235;-51
2023/03/19 11:44:16;;;;;;;1999.90;983.47;;;16.50;99.90;;;;;;5081772;28;20310;-50
2023/03/19 11:46:53;;;;;;;1999.90;999.90;;;16.40;99.90;;;;;;5086619;28;20214;-50
2023/03/19 11:49:42;;;;;;;1999.90;999.90;;;16.30;99.90;;;;;;5088152;28;20253;-51
2023/03/19 11:52:18;;;;;;;1999.90;980.08;;;16.20;99.90;;;;;;5087560;28;20308;-51
2023/03/19 11:55:00;;;;;;;1999.90;999.90;;;16.10;99.90;;;;;;5088293;28;20293;-51
2023/03/19 11:57:45;;;;;;;1999.90;951.38;;;16.10;99.90;;;;;;5087222;28;20942;-51
2023/03/19 12:00:25;;;;;;;1999.90;999.90;;;16.10;99.90;;;;;;5100637;28;20206;-50
2023/03/19 12:03:35;;;;;;;1999.90;888.60;;;16.00;99.90;;;;;;5099573;28;20239;-50
2023/03/19 12:06:11;;;;;;;1999.90;800.38;;;16.00;99.90;;;;;;5040503;28;20240;-50
2023/03/19 12:08:45;;;;;;;1999.90;911.25;;;16.00;99.90;;;;;;5104773;28;20302;-50
2023/03/19 12:11:18;;;;;;;1999.90;916.28;;;16.30;99.90;;;;;;5108735;28;20890;-50
2023/03/19 12:14:02;;;;;;;1999.90;999.90;;;16.60;99.90;;;;;;5108705;28;20587;-51
2023/03/19 12:16:43;;;;;;;1999.90;934.00;;;16.70;99.90;;;;;;5110099;28;20755;-51
2023/03/19 12:19:44;;;;;;;1999.90;999.90;;;16.80;99.90;;;;;;5112836;28;20269;-49
2023/03/19 12:22:21;;;;;;;1999.90;769.72;;;16.90;99.90;;;;;;5107355;28;20719;-51
2023/03/19 12:25:08;;;;;;;1999.90;999.90;;;17.00;99.90;;;;;;5080195;28;20898;-50